Time;durP1;ratioP1;P1;durP2;ratioP2;P2;SDS_P1;SDS_P2;PMS_P1;PMS_P2;Temp;Humidity;BMP_temperature;BMP_pressure;BME280_temperature;BME280_humidity;BME280_pressure;Samples;Min_cycle;Max_cycle;Signal;HPM_P1;HPM_P2
2021/12/07 00:02:15;;;;;;;15.77;3.17;;;;;;;;;;5030238;28;20289;-75
2021/12/07 00:04:42;;;;;;;16.97;3.57;;;;;;;;;;5030062;28;20295;-75
2021/12/07 00:07:09;;;;;;;15.73;4.67;;;;;;;;;;5029759;28;20701;-75
2021/12/07 00:09:37;;;;;;;16.83;3.93;;;;;;;;;;5029708;28;20291;-75
2021/12/07 00:12:06;;;;;;;18.17;3.70;;;;;;;;;;5030249;28;20212;-74
2021/12/07 00:14:39;;;;;;;16.37;3.97;;;;;;;;;;5029431;28;20835;-73
2021/12/07 00:17:06;;;;;;;19.57;4.13;;;;;;;;;;5029943;28;20283;-75
2021/12/07 00:19:34;;;;;;;17.37;3.80;;;;;;;;;;5028893;28;20384;-75
2021/12/07 00:22:02;;;;;;;15.83;3.20;;;;;;;;;;5029680;28;20304;-75
2021/12/07 00:24:29;;;;;;;18.03;3.80;;;;;;;;;;5083156;28;20293;-75
2021/12/07 00:26:56;;;;;;;15.40;3.57;;;;;;;;;;5112664;28;20755;-75
2021/12/07 00:29:24;;;;;;;14.13;3.73;;;;;;;;;;5112581;28;20214;-75
2021/12/07 00:32:04;;;;;;;22.83;4.20;;;;;;;;;;5112406;28;20653;-75
2021/12/07 00:34:44;;;;;;;17.07;3.70;;;;;;;;;;5112288;28;20702;-75
2021/12/07 00:37:11;;;;;;;15.73;4.47;;;;;;;;;;5118559;27;20610;-74
2021/12/07 00:39:39;;;;;;;14.50;3.63;;;;;;;;;;5112521;28;20235;-75
2021/12/07 00:42:06;;;;;;;19.33;4.27;;;;;;;;;;5111261;28;20280;-75
2021/12/07 00:44:33;;;;;;;14.80;4.10;;;;;;;;;;5108842;28;20285;-75
2021/12/07 00:47:02;;;;;;;16.33;5.20;;;;;;;;;;5112261;28;20234;-75
2021/12/07 00:49:29;;;;;;;20.17;4.57;;;;;;;;;;5112182;28;20241;-73
2021/12/07 00:51:56;;;;;;;20.23;4.70;;;;;;;;;;5111581;28;20283;-75
2021/12/07 00:54:23;;;;;;;15.00;4.10;;;;;;;;;;5112332;28;20630;-75
2021/12/07 00:56:51;;;;;;;17.40;3.60;;;;;;;;;;5111518;28;20201;-75
2021/12/07 00:59:18;;;;;;;18.00;3.53;;;;;;;;;;5112094;28;20233;-75
2021/12/07 01:01:45;;;;;;;21.80;3.33;;;;;;;;;;5111764;28;20285;-75
2021/12/07 01:04:14;;;;;;;21.30;3.83;;;;;;;;;;5104023;28;20285;-75
2021/12/07 01:07:00;;;;;;;17.10;3.50;;;;;;;;;;5111643;28;20241;-75
2021/12/07 01:09:32;;;;;;;18.30;3.80;;;;;;;;;;5112229;28;20224;-75
2021/12/07 01:25:43;;;;;;;19.03;4.40;;;;;;;;;;5028895;28;20333;-75
2021/12/07 01:28:20;;;;;;;24.03;5.10;;;;;;;;;;5028451;28;20201;-75
2021/12/07 01:30:53;;;;;;;23.33;5.00;;;;;;;;;;5028816;28;20204;-75
2021/12/07 01:33:36;;;;;;;20.40;4.70;;;;;;;;;;5027837;28;20197;-75
2021/12/07 01:36:36;;;;;;;17.87;4.50;;;;;;;;;;5028613;28;20244;-75
2021/12/07 01:44:44;;;;;;;17.33;4.10;;;;;;;;;;5027262;28;20704;-75
2021/12/07 01:53:02;;;;;;;22.23;5.33;;;;;;;;;;5021239;28;20225;-75
2021/12/07 02:01:00;;;;;;;22.87;7.37;;;;;;;;;;5065282;28;20251;-75
2021/12/07 02:03:28;;;;;;;22.70;6.97;;;;;;;;;;5069928;28;20226;-75
2021/12/07 02:05:55;;;;;;;16.97;7.30;;;;;;;;;;5070735;28;20732;-75
2021/12/07 02:08:24;;;;;;;22.20;7.37;;;;;;;;;;5070214;28;20727;-75
2021/12/07 02:10:56;;;;;;;25.47;6.73;;;;;;;;;;5070548;28;20195;-75
2021/12/07 02:14:05;;;;;;;21.33;6.30;;;;;;;;;;5070608;28;20195;-75
2021/12/07 02:16:12;;;;;;;17.27;5.80;;;;;;;;;;5087387;28;20221;-75
2021/12/07 02:18:40;;;;;;;20.80;5.77;;;;;;;;;;5109593;28;20785;-75
2021/12/07 02:21:22;;;;;;;20.33;4.93;;;;;;;;;;5114732;28;20263;-75
2021/12/07 02:23:49;;;;;;;19.50;4.97;;;;;;;;;;5113640;28;20248;-75
2021/12/07 02:26:17;;;;;;;19.60;5.13;;;;;;;;;;5115295;28;20283;-75
2021/12/07 02:28:44;;;;;;;24.80;4.83;;;;;;;;;;5115017;28;20631;-75
2021/12/07 02:31:12;;;;;;;20.07;4.63;;;;;;;;;;5116879;27;20232;-75
2021/12/07 02:33:39;;;;;;;18.37;4.97;;;;;;;;;;5114385;28;20625;-75
2021/12/07 02:36:08;;;;;;;18.63;4.77;;;;;;;;;;5114804;28;20677;-75
2021/12/07 02:38:37;;;;;;;18.57;4.90;;;;;;;;;;5114691;28;20253;-75
2021/12/07 02:41:04;;;;;;;17.70;5.17;;;;;;;;;;5114393;28;20632;-75
2021/12/07 02:43:31;;;;;;;25.73;5.00;;;;;;;;;;5114923;28;20300;-75
2021/12/07 02:45:58;;;;;;;25.60;5.10;;;;;;;;;;5113905;28;20340;-74
2021/12/07 02:48:26;;;;;;;19.73;5.13;;;;;;;;;;5114720;28;20276;-75
2021/12/07 02:50:53;;;;;;;26.13;5.50;;;;;;;;;;5114136;28;20297;-75
2021/12/07 02:53:24;;;;;;;18.07;5.30;;;;;;;;;;5114927;28;20226;-75
2021/12/07 02:55:53;;;;;;;27.77;6.00;;;;;;;;;;5114110;28;20665;-75
2021/12/07 02:58:20;;;;;;;19.40;5.47;;;;;;;;;;5113830;28;20222;-75
2021/12/07 03:00:54;;;;;;;28.33;5.43;;;;;;;;;;5114338;27;20284;-75
2021/12/07 03:03:21;;;;;;;21.60;5.30;;;;;;;;;;5114448;28;20205;-75
2021/12/07 03:05:58;;;;;;;21.77;5.43;;;;;;;;;;5110918;27;20718;-75
2021/12/07 03:27:57;;;;;;;18.37;5.30;;;;;;;;;;5031128;28;20254;-75
2021/12/07 03:30:24;;;;;;;22.17;5.87;;;;;;;;;;5030308;28;20294;-75
2021/12/07 03:32:51;;;;;;;17.90;5.33;;;;;;;;;;5031113;28;20219;-75
2021/12/07 03:35:19;;;;;;;21.97;4.93;;;;;;;;;;5029339;28;20289;-75
2021/12/07 03:37:46;;;;;;;21.03;4.30;;;;;;;;;;5030935;28;20222;-75
2021/12/07 03:40:14;;;;;;;17.80;4.70;;;;;;;;;;5030554;28;20243;-75
2021/12/07 03:42:42;;;;;;;18.70;4.13;;;;;;;;;;5030923;28;20783;-74
2021/12/07 03:45:11;;;;;;;17.27;3.80;;;;;;;;;;5027473;28;20202;-75
2021/12/07 03:47:39;;;;;;;14.13;3.87;;;;;;;;;;5037123;28;20196;-75
2021/12/07 03:50:07;;;;;;;16.43;4.20;;;;;;;;;;5113029;28;20209;-75
2021/12/07 03:52:34;;;;;;;19.93;4.10;;;;;;;;;;5112780;28;20286;-75
2021/12/07 03:55:02;;;;;;;14.60;3.70;;;;;;;;;;5113626;28;20190;-75
2021/12/07 03:57:29;;;;;;;20.03;4.53;;;;;;;;;;5112620;28;20215;-75
2021/12/07 03:59:56;;;;;;;18.00;4.07;;;;;;;;;;5113409;28;20190;-75
2021/12/07 04:02:25;;;;;;;19.13;4.40;;;;;;;;;;5113462;28;20225;-75
2021/12/07 04:04:58;;;;;;;19.00;3.90;;;;;;;;;;5113008;27;20288;-75
2021/12/07 04:07:25;;;;;;;17.03;4.20;;;;;;;;;;5112867;28;20217;-75
2021/12/07 04:09:52;;;;;;;24.43;4.10;;;;;;;;;;5112797;27;20226;-75
2021/12/07 04:12:19;;;;;;;22.03;3.93;;;;;;;;;;5117092;27;20198;-75
2021/12/07 04:14:46;;;;;;;15.97;4.23;;;;;;;;;;5112479;28;20220;-75
2021/12/07 04:17:14;;;;;;;16.10;4.03;;;;;;;;;;5112813;28;20316;-75
2021/12/07 04:19:42;;;;;;;19.23;4.80;;;;;;;;;;5119828;27;20732;-75
2021/12/07 04:22:10;;;;;;;16.63;4.27;;;;;;;;;;5119790;27;20411;-75
2021/12/07 04:24:37;;;;;;;17.57;3.93;;;;;;;;;;5112608;28;20304;-75
2021/12/07 04:27:05;;;;;;;18.13;4.20;;;;;;;;;;5113304;28;20193;-75
2021/12/07 04:29:32;;;;;;;20.30;3.77;;;;;;;;;;5112067;28;20200;-75
2021/12/07 04:32:00;;;;;;;16.33;3.73;;;;;;;;;;5112553;28;20561;-75
2021/12/07 04:34:27;;;;;;;17.30;4.03;;;;;;;;;;5112427;28;20288;-75
2021/12/07 04:36:56;;;;;;;17.23;5.27;;;;;;;;;;5111770;28;20198;-75
2021/12/07 04:39:23;;;;;;;14.70;3.83;;;;;;;;;;5112614;28;20304;-75
2021/12/07 04:41:51;;;;;;;19.43;4.03;;;;;;;;;;5112253;28;20209;-75
2021/12/07 04:44:21;;;;;;;24.93;8.80;;;;;;;;;;5112686;28;20199;-75
2021/12/07 04:46:59;;;;;;;22.37;6.47;;;;;;;;;;5112071;28;20207;-75
2021/12/07 04:57:46;;;;;;;14.17;3.90;;;;;;;;;;5112203;28;20220;-74
2021/12/07 05:00:14;;;;;;;13.73;3.80;;;;;;;;;;5112504;28;20281;-74
2021/12/07 05:02:44;;;;;;;20.47;4.00;;;;;;;;;;5112429;28;20292;-75
2021/12/07 05:05:14;;;;;;;22.30;4.63;;;;;;;;;;5110595;28;20205;-75
2021/12/07 05:07:48;;;;;;;13.27;4.37;;;;;;;;;;5112289;28;20203;-75
2021/12/07 05:10:26;;;;;;;17.00;4.27;;;;;;;;;;5111866;28;20228;-75
2021/12/07 05:15:57;;;;;;;16.87;3.50;;;;;;;;;;5098174;28;20224;-75
2021/12/07 05:18:38;;;;;;;18.97;3.97;;;;;;;;;;5102881;28;20217;-75
2021/12/07 05:23:58;;;;;;;16.17;3.40;;;;;;;;;;5112163;28;20196;-75
2021/12/07 05:34:53;;;;;;;12.53;3.27;;;;;;;;;;5112068;28;20250;-75
2021/12/07 05:40:09;;;;;;;13.30;3.47;;;;;;;;;;5111248;28;20326;-75
2021/12/07 05:42:36;;;;;;;13.00;2.90;;;;;;;;;;5108201;28;20250;-75
2021/12/07 05:45:05;;;;;;;12.57;2.93;;;;;;;;;;5111802;28;20204;-75
2021/12/07 05:47:32;;;;;;;14.70;3.40;;;;;;;;;;5111104;28;20238;-75
2021/12/07 05:49:59;;;;;;;11.77;2.83;;;;;;;;;;5111534;28;20287;-74
2021/12/07 05:52:26;;;;;;;11.47;3.43;;;;;;;;;;5110796;28;20227;-74
2021/12/07 05:54:53;;;;;;;16.47;2.87;;;;;;;;;;5111095;28;20192;-74
2021/12/07 05:57:22;;;;;;;13.43;2.50;;;;;;;;;;5111423;28;20292;-74
2021/12/07 05:59:49;;;;;;;11.27;2.83;;;;;;;;;;5115216;28;20308;-74
2021/12/07 06:02:17;;;;;;;14.20;3.10;;;;;;;;;;5115014;28;20734;-74
2021/12/07 06:04:44;;;;;;;12.23;2.93;;;;;;;;;;5118262;27;20691;-75
2021/12/07 06:07:11;;;;;;;9.93;2.60;;;;;;;;;;5115646;28;20665;-76
2021/12/07 06:09:39;;;;;;;13.20;2.70;;;;;;;;;;5116257;27;20733;-75
2021/12/07 06:12:06;;;;;;;15.40;2.70;;;;;;;;;;5115463;28;20277;-75
2021/12/07 06:14:42;;;;;;;11.83;3.10;;;;;;;;;;5115114;28;20697;-75
2021/12/07 06:17:09;;;;;;;11.80;2.87;;;;;;;;;;5115212;28;20221;-75
2021/12/07 06:19:36;;;;;;;9.67;2.80;;;;;;;;;;5114069;28;20955;-74
2021/12/07 06:22:05;;;;;;;15.17;3.20;;;;;;;;;;5114338;28;20223;-75
2021/12/07 06:24:32;;;;;;;11.93;2.90;;;;;;;;;;5113668;28;20806;-75
2021/12/07 06:26:59;;;;;;;16.90;3.53;;;;;;;;;;5115028;28;20276;-74
2021/12/07 06:29:26;;;;;;;12.13;3.30;;;;;;;;;;5115715;28;20286;-74
2021/12/07 06:31:55;;;;;;;12.43;3.57;;;;;;;;;;5122418;27;20287;-74
2021/12/07 06:34:22;;;;;;;16.57;3.63;;;;;;;;;;5115759;28;20301;-75
2021/12/07 06:36:49;;;;;;;10.40;3.90;;;;;;;;;;5115087;28;20291;-75
2021/12/07 06:39:18;;;;;;;12.30;3.90;;;;;;;;;;5108147;28;20251;-74
2021/12/07 06:41:45;;;;;;;11.57;3.97;;;;;;;;;;5111947;27;20201;-76
2021/12/07 06:44:13;;;;;;;12.67;4.60;;;;;;;;;;5114736;28;20192;-76
2021/12/07 06:46:40;;;;;;;12.03;3.90;;;;;;;;;;5114934;28;20195;-75
2021/12/07 06:49:08;;;;;;;11.93;4.10;;;;;;;;;;5114719;28;20197;-76
2021/12/07 06:51:35;;;;;;;19.07;4.63;;;;;;;;;;5114927;28;20729;-76
2021/12/07 06:54:03;;;;;;;14.23;4.30;;;;;;;;;;5114530;28;20296;-76
2021/12/07 06:56:30;;;;;;;13.70;4.00;;;;;;;;;;5115491;28;20290;-76
2021/12/07 06:58:57;;;;;;;9.37;4.20;;;;;;;;;;5117023;27;20222;-76
2021/12/07 07:01:24;;;;;;;19.27;4.20;;;;;;;;;;5135868;27;20308;-76
2021/12/07 07:03:51;;;;;;;9.13;3.30;;;;;;;;;;5135413;27;20292;-76
2021/12/07 07:06:20;;;;;;;15.67;4.40;;;;;;;;;;5135519;27;20551;-76
2021/12/07 07:08:50;;;;;;;11.70;4.10;;;;;;;;;;5135210;27;20740;-76
2021/12/07 07:11:17;;;;;;;9.77;3.10;;;;;;;;;;5135760;27;20197;-76
2021/12/07 07:13:44;;;;;;;11.20;4.03;;;;;;;;;;5135630;27;20226;-76
2021/12/07 07:16:11;;;;;;;12.13;4.40;;;;;;;;;;5135153;27;20266;-76
2021/12/07 07:18:39;;;;;;;12.53;3.30;;;;;;;;;;5135346;27;20245;-76
2021/12/07 07:21:07;;;;;;;13.73;4.40;;;;;;;;;;5135295;27;20213;-76
2021/12/07 07:23:38;;;;;;;9.33;3.60;;;;;;;;;;5135160;27;20291;-76
2021/12/07 07:26:05;;;;;;;18.10;4.23;;;;;;;;;;5135405;27;20205;-76
2021/12/07 07:28:34;;;;;;;11.70;4.03;;;;;;;;;;5135172;27;20293;-76
2021/12/07 07:31:01;;;;;;;14.27;3.93;;;;;;;;;;5135239;27;20233;-76
2021/12/07 07:33:28;;;;;;;14.50;3.83;;;;;;;;;;5132373;27;20287;-76
2021/12/07 07:35:56;;;;;;;15.87;4.53;;;;;;;;;;5114298;28;20229;-76
2021/12/07 07:38:23;;;;;;;10.03;3.40;;;;;;;;;;5114346;28;20756;-76
2021/12/07 07:40:51;;;;;;;15.43;4.13;;;;;;;;;;5114278;28;20272;-76
2021/12/07 07:43:19;;;;;;;14.13;3.90;;;;;;;;;;5114055;28;20322;-76
2021/12/07 07:45:48;;;;;;;7.37;2.63;;;;;;;;;;5114523;28;20285;-74
2021/12/07 07:48:15;;;;;;;12.40;3.83;;;;;;;;;;5132146;27;20284;-76
2021/12/07 07:50:42;;;;;;;15.57;4.10;;;;;;;;;;5113546;28;20721;-74
2021/12/07 07:53:09;;;;;;;15.57;3.43;;;;;;;;;;5114169;28;20207;-76
2021/12/07 07:55:38;;;;;;;10.33;3.37;;;;;;;;;;5134300;27;20231;-75
2021/12/07 07:58:07;;;;;;;18.93;4.33;;;;;;;;;;5134460;27;20246;-76
2021/12/07 08:00:34;;;;;;;16.00;3.40;;;;;;;;;;5134683;27;20307;-74
2021/12/07 08:03:01;;;;;;;15.60;3.10;;;;;;;;;;5134584;27;20229;-76
2021/12/07 08:05:28;;;;;;;13.53;3.57;;;;;;;;;;5134044;27;21112;-76
2021/12/07 08:07:55;;;;;;;11.63;3.40;;;;;;;;;;5132232;27;20725;-76
2021/12/07 08:10:28;;;;;;;18.87;4.13;;;;;;;;;;5130869;27;20186;-76
2021/12/07 08:12:56;;;;;;;14.17;3.43;;;;;;;;;;5123269;27;20203;-75
2021/12/07 08:15:24;;;;;;;15.87;3.77;;;;;;;;;;5113111;28;20332;-77
2021/12/07 08:17:51;;;;;;;16.43;3.47;;;;;;;;;;5113882;28;20288;-76
2021/12/07 08:20:19;;;;;;;14.43;3.57;;;;;;;;;;5112686;28;20657;-76
2021/12/07 08:22:46;;;;;;;10.67;3.17;;;;;;;;;;5113803;28;20288;-74
2021/12/07 08:25:13;;;;;;;15.23;3.80;;;;;;;;;;5113248;28;20232;-76
2021/12/07 08:27:40;;;;;;;19.27;4.40;;;;;;;;;;5127779;27;20320;-76
2021/12/07 08:30:10;;;;;;;17.17;3.87;;;;;;;;;;5133958;27;20577;-76
2021/12/07 08:32:44;;;;;;;16.43;4.17;;;;;;;;;;5133950;27;20202;-76
2021/12/07 08:35:12;;;;;;;13.07;4.07;;;;;;;;;;5133358;27;20276;-76
2021/12/07 08:37:39;;;;;;;14.50;4.27;;;;;;;;;;5128237;27;20273;-76
2021/12/07 08:40:09;;;;;;;18.03;4.20;;;;;;;;;;5113091;27;20596;-76
2021/12/07 08:42:36;;;;;;;17.30;3.80;;;;;;;;;;5113199;28;20205;-76
2021/12/07 08:45:04;;;;;;;18.90;4.20;;;;;;;;;;5113364;28;20255;-76
2021/12/07 08:47:31;;;;;;;21.07;4.73;;;;;;;;;;5113094;28;20303;-76
2021/12/07 08:49:59;;;;;;;18.17;4.07;;;;;;;;;;5112742;28;20434;-76
2021/12/07 08:52:27;;;;;;;22.27;3.90;;;;;;;;;;5112940;28;20324;-76
2021/12/07 09:00:24;;;;;;;18.40;4.83;;;;;;;;;;5112879;28;20240;-76
2021/12/07 09:02:52;;;;;;;18.00;4.33;;;;;;;;;;5112650;28;20205;-76
2021/12/07 09:05:20;;;;;;;16.27;4.10;;;;;;;;;;5112466;28;20240;-76
2021/12/07 09:07:48;;;;;;;13.43;4.20;;;;;;;;;;5113059;28;20284;-76
2021/12/07 09:10:16;;;;;;;16.77;4.57;;;;;;;;;;5112581;28;20691;-76
2021/12/07 09:12:43;;;;;;;11.13;3.80;;;;;;;;;;5112582;28;20638;-76
2021/12/07 09:15:10;;;;;;;22.17;5.23;;;;;;;;;;5112752;28;20322;-76
2021/12/07 09:17:38;;;;;;;20.23;4.90;;;;;;;;;;5112303;28;20279;-76
2021/12/07 09:20:06;;;;;;;19.47;4.43;;;;;;;;;;5112664;28;20256;-76
2021/12/07 09:22:35;;;;;;;17.23;4.73;;;;;;;;;;5112352;28;20207;-76
2021/12/07 09:25:02;;;;;;;20.13;4.73;;;;;;;;;;5112707;28;20293;-76
2021/12/07 09:27:29;;;;;;;23.37;5.60;;;;;;;;;;5112179;28;20300;-76
2021/12/07 09:29:56;;;;;;;22.47;5.17;;;;;;;;;;5112506;28;20197;-76
2021/12/07 09:32:23;;;;;;;22.30;5.87;;;;;;;;;;5111310;28;20203;-76
2021/12/07 09:34:51;;;;;;;23.27;5.83;;;;;;;;;;5112458;28;20241;-76
2021/12/07 09:37:18;;;;;;;25.93;5.47;;;;;;;;;;5112412;28;20194;-76
2021/12/07 09:39:46;;;;;;;14.37;5.73;;;;;;;;;;5112221;28;20320;-76
2021/12/07 09:42:13;;;;;;;19.80;5.20;;;;;;;;;;5112015;28;20225;-76
2021/12/07 09:44:41;;;;;;;21.70;6.73;;;;;;;;;;5111443;28;20288;-76
2021/12/07 09:47:08;;;;;;;23.80;6.33;;;;;;;;;;5112047;28;20232;-76
2021/12/07 09:49:35;;;;;;;24.27;6.53;;;;;;;;;;5112038;28;20197;-75
2021/12/07 09:52:02;;;;;;;23.97;6.37;;;;;;;;;;5112408;28;20285;-77
2021/12/07 09:54:29;;;;;;;27.70;7.00;;;;;;;;;;5111957;28;20229;-76
2021/12/07 09:56:58;;;;;;;19.40;6.17;;;;;;;;;;5111759;28;20205;-76
2021/12/07 09:59:25;;;;;;;23.10;7.00;;;;;;;;;;5111985;28;20229;-76
2021/12/07 10:01:53;;;;;;;21.53;6.67;;;;;;;;;;5111428;28;20696;-76
2021/12/07 10:04:24;;;;;;;27.80;6.70;;;;;;;;;;5112138;28;20216;-76
2021/12/07 10:06:51;;;;;;;26.47;6.20;;;;;;;;;;5112163;28;20288;-76
2021/12/07 10:09:18;;;;;;;16.53;5.50;;;;;;;;;;5112250;28;20284;-76
2021/12/07 10:11:45;;;;;;;23.03;7.00;;;;;;;;;;5111944;28;20285;-76
2021/12/07 10:14:14;;;;;;;25.83;6.87;;;;;;;;;;5111880;28;20221;-76
2021/12/07 10:16:46;;;;;;;20.90;7.03;;;;;;;;;;5111456;28;20643;-76
2021/12/07 10:19:15;;;;;;;28.10;7.37;;;;;;;;;;5111925;28;20198;-76
2021/12/07 10:21:43;;;;;;;24.37;7.03;;;;;;;;;;5111985;28;20229;-76
2021/12/07 10:24:17;;;;;;;16.80;7.00;;;;;;;;;;5111841;28;20244;-76
2021/12/07 10:26:45;;;;;;;24.33;7.87;;;;;;;;;;5111998;28;20197;-76
2021/12/07 10:29:15;;;;;;;25.37;7.07;;;;;;;;;;5126729;28;20323;-76
2021/12/07 10:31:43;;;;;;;27.50;7.13;;;;;;;;;;5130824;27;20281;-76
2021/12/07 10:34:13;;;;;;;20.13;6.67;;;;;;;;;;5111705;28;20206;-76
2021/12/07 10:36:42;;;;;;;20.67;6.80;;;;;;;;;;5111788;28;20282;-76
2021/12/07 10:39:11;;;;;;;21.87;6.90;;;;;;;;;;5111743;28;20286;-76
2021/12/07 10:41:40;;;;;;;19.30;6.97;;;;;;;;;;5111577;28;20222;-76
2021/12/07 10:44:09;;;;;;;15.97;5.30;;;;;;;;;;5123196;27;20322;-76
2021/12/07 10:46:42;;;;;;;22.63;5.80;;;;;;;;;;5135308;27;20768;-76
2021/12/07 10:49:17;;;;;;;24.10;6.20;;;;;;;;;;5115484;27;20659;-76
2021/12/07 10:51:57;;;;;;;26.20;5.13;;;;;;;;;;5115458;28;20618;-76
2021/12/07 10:54:25;;;;;;;23.33;5.90;;;;;;;;;;5115668;28;20198;-76
2021/12/07 10:56:52;;;;;;;22.07;5.20;;;;;;;;;;5115181;28;20305;-76
2021/12/07 10:59:19;;;;;;;19.10;4.23;;;;;;;;;;5114380;28;20229;-76
2021/12/07 11:01:49;;;;;;;20.57;4.67;;;;;;;;;;5115107;28;20318;-76
2021/12/07 11:04:20;;;;;;;20.57;4.90;;;;;;;;;;5115361;28;20287;-76
2021/12/07 11:07:06;;;;;;;18.53;4.63;;;;;;;;;;5115027;28;20687;-75
2021/12/07 11:09:38;;;;;;;15.93;3.93;;;;;;;;;;5115156;28;20769;-76
2021/12/07 11:12:09;;;;;;;21.00;4.70;;;;;;;;;;5114915;28;20212;-76
2021/12/07 11:14:48;;;;;;;23.37;5.23;;;;;;;;;;5114899;28;20305;-76
2021/12/07 11:17:16;;;;;;;18.13;4.57;;;;;;;;;;5114735;28;20238;-76
2021/12/07 11:19:44;;;;;;;22.07;4.67;;;;;;;;;;5114802;28;20199;-76
2021/12/07 11:22:14;;;;;;;17.93;4.33;;;;;;;;;;5114387;28;20297;-76
2021/12/07 11:24:43;;;;;;;15.40;3.90;;;;;;;;;;5114751;28;20288;-76
2021/12/07 11:30:00;;;;;;;16.57;4.10;;;;;;;;;;5114222;28;20214;-76
2021/12/07 11:32:30;;;;;;;15.60;3.63;;;;;;;;;;5114812;28;20193;-76
2021/12/07 11:35:07;;;;;;;15.67;4.00;;;;;;;;;;5114120;28;20287;-76
2021/12/07 11:37:36;;;;;;;17.60;3.70;;;;;;;;;;5114627;28;20232;-76
2021/12/07 11:40:03;;;;;;;15.03;3.77;;;;;;;;;;5114399;28;20279;-76
2021/12/07 11:42:32;;;;;;;16.50;3.63;;;;;;;;;;5113643;28;20708;-76
2021/12/07 11:45:00;;;;;;;16.67;3.53;;;;;;;;;;5114230;28;20733;-76
2021/12/07 11:47:31;;;;;;;15.33;3.67;;;;;;;;;;5114533;28;20291;-76
2021/12/07 11:49:59;;;;;;;19.07;3.60;;;;;;;;;;5114046;28;20204;-76
2021/12/07 11:52:27;;;;;;;9.93;2.47;;;;;;;;;;5114407;28;20291;-76
2021/12/07 11:54:54;;;;;;;15.03;3.47;;;;;;;;;;5113568;28;20586;-76
2021/12/07 11:57:22;;;;;;;14.83;3.33;;;;;;;;;;5113256;28;20283;-76
2021/12/07 11:59:50;;;;;;;13.03;3.17;;;;;;;;;;5113861;28;20277;-76
2021/12/07 12:02:19;;;;;;;15.00;3.30;;;;;;;;;;5114038;28;20224;-76
2021/12/07 12:04:48;;;;;;;15.37;3.23;;;;;;;;;;5114056;28;20251;-76
2021/12/07 12:07:15;;;;;;;9.37;2.20;;;;;;;;;;5114013;28;20288;-76
2021/12/07 12:09:47;;;;;;;13.63;2.33;;;;;;;;;;5114258;28;20292;-76
2021/12/07 12:12:18;;;;;;;11.63;2.73;;;;;;;;;;5113620;28;20609;-75
2021/12/07 12:14:52;;;;;;;14.80;3.07;;;;;;;;;;5113765;28;20312;-76
2021/12/07 12:17:25;;;;;;;11.57;3.03;;;;;;;;;;5113661;28;20281;-76
2021/12/07 12:20:06;;;;;;;8.70;2.20;;;;;;;;;;5114075;28;20196;-76
2021/12/07 12:22:37;;;;;;;6.83;2.17;;;;;;;;;;5129391;27;20272;-76
2021/12/07 12:25:07;;;;;;;13.97;2.67;;;;;;;;;;5119170;27;20276;-76
2021/12/07 12:27:36;;;;;;;15.77;3.20;;;;;;;;;;5134155;27;20627;-76
2021/12/07 12:30:07;;;;;;;10.47;2.67;;;;;;;;;;5120554;27;20688;-76
2021/12/07 12:32:36;;;;;;;14.13;2.90;;;;;;;;;;5113671;28;20229;-76
2021/12/07 12:35:05;;;;;;;9.97;2.60;;;;;;;;;;5113197;28;20205;-77
2021/12/07 12:37:33;;;;;;;8.70;2.40;;;;;;;;;;5113176;28;20631;-75
2021/12/07 12:40:01;;;;;;;5.37;1.47;;;;;;;;;;5112715;28;20232;-76
2021/12/07 12:42:31;;;;;;;7.50;1.70;;;;;;;;;;5112994;27;20221;-76
2021/12/07 12:45:00;;;;;;;10.60;2.50;;;;;;;;;;5113033;28;20308;-76
2021/12/07 12:47:28;;;;;;;6.33;1.87;;;;;;;;;;5112947;28;20235;-76
2021/12/07 12:49:55;;;;;;;10.93;2.80;;;;;;;;;;5113030;28;20200;-76
2021/12/07 12:52:40;;;;;;;8.50;2.20;;;;;;;;;;5113239;28;20300;-76
2021/12/07 12:55:07;;;;;;;11.30;2.97;;;;;;;;;;5112230;28;20232;-76
2021/12/07 12:57:49;;;;;;;12.10;2.97;;;;;;;;;;5112784;28;20735;-76
2021/12/07 13:00:16;;;;;;;10.43;2.23;;;;;;;;;;5112912;28;20204;-75
2021/12/07 13:02:47;;;;;;;10.13;2.30;;;;;;;;;;5112654;28;20282;-76
2021/12/07 13:05:16;;;;;;;10.60;2.03;;;;;;;;;;5112711;28;20276;-76
2021/12/07 13:07:46;;;;;;;7.77;2.10;;;;;;;;;;5112556;27;20688;-76
2021/12/07 13:10:13;;;;;;;7.97;2.40;;;;;;;;;;5112313;28;20257;-75
2021/12/07 13:12:41;;;;;;;10.93;2.20;;;;;;;;;;5112477;28;20197;-76
2021/12/07 13:15:09;;;;;;;8.23;1.73;;;;;;;;;;5116713;27;20232;-76
2021/12/07 13:17:41;;;;;;;8.20;1.47;;;;;;;;;;5115413;27;20207;-76
2021/12/07 13:20:23;;;;;;;8.27;2.07;;;;;;;;;;5112232;28;20237;-76
2021/12/07 13:22:54;;;;;;;6.47;1.33;;;;;;;;;;5112360;28;20194;-76
2021/12/07 13:25:23;;;;;;;6.37;1.63;;;;;;;;;;5112254;28;20201;-76
2021/12/07 13:28:06;;;;;;;5.90;1.50;;;;;;;;;;5112589;28;20198;-76
2021/12/07 13:30:37;;;;;;;6.83;1.80;;;;;;;;;;5112274;28;20205;-76
2021/12/07 13:33:06;;;;;;;6.20;1.80;;;;;;;;;;5112302;28;20223;-76
2021/12/07 13:35:34;;;;;;;5.00;1.60;;;;;;;;;;5127444;27;20662;-76
2021/12/07 13:38:15;;;;;;;4.93;1.60;;;;;;;;;;5130231;27;20294;-75
2021/12/07 13:40:42;;;;;;;3.83;1.50;;;;;;;;;;5111681;28;20724;-76
2021/12/07 13:43:09;;;;;;;5.87;1.80;;;;;;;;;;5112197;28;20293;-76
2021/12/07 13:45:36;;;;;;;5.33;1.50;;;;;;;;;;5112166;28;20289;-76
2021/12/07 13:48:04;;;;;;;6.70;1.57;;;;;;;;;;5112461;28;20277;-75
2021/12/07 13:50:32;;;;;;;2.87;1.07;;;;;;;;;;5111296;27;20200;-76
2021/12/07 13:52:59;;;;;;;2.97;1.20;;;;;;;;;;5112061;28;20240;-77
2021/12/07 13:55:29;;;;;;;4.83;1.37;;;;;;;;;;5112107;28;20282;-76
2021/12/07 13:57:57;;;;;;;5.37;1.40;;;;;;;;;;5112238;28;20294;-76
2021/12/07 14:00:25;;;;;;;3.33;1.53;;;;;;;;;;5112123;28;20285;-76
2021/12/07 14:02:55;;;;;;;2.73;1.20;;;;;;;;;;5112011;28;20311;-76
2021/12/07 14:05:24;;;;;;;2.90;1.20;;;;;;;;;;5111725;28;20205;-76
2021/12/07 14:07:52;;;;;;;4.80;1.43;;;;;;;;;;5116872;27;20225;-76
2021/12/07 14:10:20;;;;;;;4.63;1.20;;;;;;;;;;5132859;28;20240;-76
2021/12/07 14:12:49;;;;;;;1.97;0.90;;;;;;;;;;5132503;28;20630;-76
2021/12/07 14:15:18;;;;;;;2.90;1.10;;;;;;;;;;5132110;28;20268;-76
2021/12/07 14:17:47;;;;;;;3.67;1.43;;;;;;;;;;5132514;27;20237;-76
2021/12/07 14:20:14;;;;;;;5.53;1.47;;;;;;;;;;5136400;27;20201;-76
2021/12/07 14:22:46;;;;;;;3.83;1.60;;;;;;;;;;5130494;27;20229;-76
2021/12/07 14:25:17;;;;;;;4.20;1.60;;;;;;;;;;5115744;28;20204;-76
2021/12/07 14:27:45;;;;;;;2.63;1.30;;;;;;;;;;5130797;27;20898;-75
2021/12/07 14:30:14;;;;;;;2.67;1.17;;;;;;;;;;5135210;27;20208;-76
2021/12/07 14:32:41;;;;;;;4.00;1.30;;;;;;;;;;5115421;28;20784;-76
2021/12/07 14:35:09;;;;;;;3.23;1.30;;;;;;;;;;5115647;28;20285;-76
2021/12/07 14:37:36;;;;;;;4.73;1.30;;;;;;;;;;5114873;27;20290;-76
2021/12/07 14:40:04;;;;;;;4.23;1.70;;;;;;;;;;5131821;27;20738;-76
2021/12/07 14:42:32;;;;;;;2.40;1.30;;;;;;;;;;5136128;27;20272;-76
2021/12/07 14:44:59;;;;;;;3.23;1.47;;;;;;;;;;5116188;27;20249;-76
2021/12/07 14:47:28;;;;;;;3.07;1.27;;;;;;;;;;5115376;28;20777;-76
2021/12/07 14:49:57;;;;;;;3.77;1.60;;;;;;;;;;5115531;28;20204;-76
2021/12/07 14:52:26;;;;;;;2.90;1.77;;;;;;;;;;5113953;28;20293;-76
2021/12/07 14:54:54;;;;;;;2.83;1.67;;;;;;;;;;5114888;28;20208;-76
2021/12/07 14:57:22;;;;;;;3.37;1.30;;;;;;;;;;5115383;28;20293;-76
2021/12/07 14:59:50;;;;;;;2.70;1.43;;;;;;;;;;5114997;28;20560;-76
2021/12/07 15:02:17;;;;;;;3.33;1.80;;;;;;;;;;5114943;28;20983;-76
2021/12/07 15:04:46;;;;;;;3.53;1.80;;;;;;;;;;5114852;28;20672;-76
2021/12/07 15:07:14;;;;;;;3.97;2.20;;;;;;;;;;5115072;28;20286;-76
2021/12/07 15:09:41;;;;;;;3.50;2.00;;;;;;;;;;5114556;28;20279;-76
2021/12/07 15:12:10;;;;;;;2.93;1.70;;;;;;;;;;5115271;28;20258;-76
2021/12/07 15:14:37;;;;;;;3.73;1.97;;;;;;;;;;5114640;28;20690;-76
2021/12/07 15:17:07;;;;;;;5.67;3.00;;;;;;;;;;5114922;28;20320;-76
2021/12/07 15:19:35;;;;;;;5.10;2.60;;;;;;;;;;5115206;28;20622;-75
2021/12/07 15:22:04;;;;;;;3.97;2.70;;;;;;;;;;5114480;28;20223;-75
2021/12/07 15:24:33;;;;;;;4.17;2.43;;;;;;;;;;5114598;28;20769;-75
2021/12/07 15:27:01;;;;;;;2.90;2.30;;;;;;;;;;5114713;28;20220;-76
2021/12/07 15:29:29;;;;;;;4.60;2.60;;;;;;;;;;5114401;28;20306;-76
2021/12/07 15:31:57;;;;;;;4.87;2.57;;;;;;;;;;5113628;28;20285;-77
2021/12/07 15:34:26;;;;;;;4.13;3.50;;;;;;;;;;5114336;28;20288;-76
2021/12/07 15:36:58;;;;;;;3.87;3.00;;;;;;;;;;5113907;28;20233;-76
2021/12/07 15:39:28;;;;;;;5.80;3.20;;;;;;;;;;5114694;28;20254;-76
2021/12/07 15:41:56;;;;;;;3.47;2.70;;;;;;;;;;5114583;28;20220;-76
2021/12/07 15:44:25;;;;;;;6.20;2.13;;;;;;;;;;5114123;27;20221;-76
2021/12/07 15:46:54;;;;;;;8.17;2.10;;;;;;;;;;5119655;27;20285;-76
2021/12/07 15:49:23;;;;;;;9.83;3.00;;;;;;;;;;5115906;27;20289;-76
2021/12/07 15:51:51;;;;;;;20.07;3.60;;;;;;;;;;5115763;27;20795;-76
2021/12/07 15:54:18;;;;;;;23.10;3.87;;;;;;;;;;5134489;27;20230;-76
2021/12/07 15:56:55;;;;;;;21.23;4.00;;;;;;;;;;5120900;27;20273;-76
2021/12/07 15:59:23;;;;;;;20.67;3.33;;;;;;;;;;5116283;27;20281;-76
2021/12/07 16:01:51;;;;;;;17.93;3.40;;;;;;;;;;5115948;27;20213;-77
2021/12/07 16:04:22;;;;;;;25.00;4.33;;;;;;;;;;5115234;27;20302;-76
2021/12/07 16:06:50;;;;;;;22.60;3.50;;;;;;;;;;5110678;28;20639;-76
2021/12/07 16:09:18;;;;;;;25.20;4.13;;;;;;;;;;5112867;28;20204;-76